Time;durP1;ratioP1;P1;durP2;ratioP2;P2;SDS_P1;SDS_P2;PMS_P1;PMS_P2;Temp;Humidity;BMP_temperature;BMP_pressure;BME280_temperature;BME280_humidity;BME280_pressure;Samples;Min_cycle;Max_cycle;Signal;HPM_P1;HPM_P2
2022/07/18 00:00:03;;;;;;;3.23;1.20;;;;;;;18.24;53.27;101850.47;5051144;28;20231;-75
2022/07/18 00:02:31;;;;;;;3.77;1.40;;;;;;;18.15;53.57;101837.53;5051190;28;20288;-75
2022/07/18 00:04:58;;;;;;;2.23;1.13;;;;;;;18.03;53.26;101841.38;5053607;28;20209;-75
2022/07/18 00:07:24;;;;;;;2.17;0.90;;;;;;;17.93;53.46;101846.97;5052558;28;20200;-75
2022/07/18 00:09:51;;;;;;;1.70;1.13;;;;;;;17.89;53.70;101840.03;5051379;28;20225;-75
2022/07/18 00:12:18;;;;;;;1.80;1.00;;;;;;;17.81;53.91;101841.06;5051510;28;20239;-74
2022/07/18 00:14:44;;;;;;;1.77;1.00;;;;;;;17.69;53.52;101841.38;5051030;28;20276;-75
2022/07/18 00:17:11;;;;;;;3.27;1.67;;;;;;;17.68;53.99;101844.94;5051577;28;20262;-75
2022/07/18 00:19:39;;;;;;;4.73;1.33;;;;;;;17.66;54.15;101836.19;5051317;28;20221;-75
2022/07/18 00:22:06;;;;;;;1.47;1.10;;;;;;;17.62;54.74;101827.50;5051397;28;20764;-75
2022/07/18 00:24:33;;;;;;;2.33;1.00;;;;;;;17.61;55.07;101809.91;5051477;28;20632;-74
2022/07/18 00:26:59;;;;;;;1.17;1.10;;;;;;;17.57;54.96;101805.59;5051171;28;20678;-75
2022/07/18 00:29:26;;;;;;;2.60;1.20;;;;;;;17.47;55.37;101802.34;5051202;28;20292;-73
2022/07/18 00:31:53;;;;;;;1.77;1.10;;;;;;;17.50;55.22;101797.88;5051413;28;20229;-74
2022/07/18 00:34:19;;;;;;;3.00;1.10;;;;;;;17.37;55.88;101789.44;5059064;28;20254;-74
2022/07/18 00:36:47;;;;;;;2.00;1.07;;;;;;;17.29;56.21;101775.56;5062621;28;20729;-74
2022/07/18 00:39:13;;;;;;;1.83;1.20;;;;;;;17.30;56.14;101772.84;5071263;28;20224;-75
2022/07/18 00:41:40;;;;;;;1.50;0.90;;;;;;;17.23;56.76;101760.75;5071615;28;20263;-74
2022/07/18 00:44:06;;;;;;;2.00;1.27;;;;;;;17.32;56.51;101743.78;5071162;28;20670;-74
2022/07/18 00:46:33;;;;;;;1.43;1.30;;;;;;;17.33;56.46;101742.91;5071178;28;20228;-75
2022/07/18 00:48:59;;;;;;;4.00;1.20;;;;;;;17.34;56.57;101737.56;5071114;28;20282;-74
2022/07/18 00:51:26;;;;;;;3.67;1.13;;;;;;;17.30;56.41;101742.97;5071296;28;20238;-74
2022/07/18 00:53:53;;;;;;;1.73;1.27;;;;;;;17.33;56.11;101751.69;5071957;28;20859;-74
2022/07/18 00:56:21;;;;;;;1.67;1.23;;;;;;;17.29;55.71;101772.91;5074375;28;20250;-74
2022/07/18 00:58:48;;;;;;;2.33;1.07;;;;;;;17.24;55.76;101779.19;5074803;28;20223;-74
2022/07/18 01:03:58;;;;;;;3.53;1.43;;;;;;;17.15;57.02;101766.22;5068425;28;20573;-74
2022/07/18 01:06:25;;;;;;;1.83;1.17;;;;;;;17.20;56.54;101751.13;5065876;28;20665;-75
2022/07/18 01:08:51;;;;;;;1.17;1.13;;;;;;;17.20;56.53;101745.84;5074420;28;20229;-74
2022/07/18 01:11:21;;;;;;;1.30;1.20;;;;;;;17.21;56.23;101755.50;5074810;28;20204;-74
2022/07/18 01:17:13;;;;;;;2.87;1.10;;;;;;;17.15;56.66;101744.25;5072987;28;20276;-75
2022/07/18 01:19:40;;;;;;;1.60;1.10;;;;;;;17.04;57.23;101750.63;5073970;28;20227;-75
2022/07/18 01:22:08;;;;;;;1.87;1.00;;;;;;;16.99;57.27;101734.06;5074221;28;20208;-74
2022/07/18 01:24:34;;;;;;;2.80;1.30;;;;;;;16.96;57.68;101723.59;5074449;28;20207;-75
2022/07/18 01:27:01;;;;;;;4.90;1.50;;;;;;;16.97;57.54;101725.31;5074222;28;20258;-75
2022/07/18 01:29:27;;;;;;;1.83;0.93;;;;;;;16.93;57.80;101712.25;5063592;28;20220;-75
2022/07/18 01:31:54;;;;;;;2.00;1.20;;;;;;;16.79;58.26;101716.06;5053821;28;20255;-74
2022/07/18 01:34:22;;;;;;;1.60;0.93;;;;;;;16.71;58.79;101688.13;5053156;28;20698;-75
2022/07/18 01:36:48;;;;;;;1.60;1.20;;;;;;;16.74;58.75;101680.16;5053573;28;20707;-74
2022/07/18 01:39:16;;;;;;;3.13;1.37;;;;;;;16.70;59.07;101679.38;5053584;28;20246;-75
2022/07/18 01:41:42;;;;;;;1.00;0.90;;;;;;;16.62;59.04;101666.38;5053565;28;20212;-75
2022/07/18 01:44:09;;;;;;;1.13;1.03;;;;;;;16.66;58.44;101672.44;5053500;28;20795;-75
2022/07/18 01:46:35;;;;;;;1.13;0.90;;;;;;;16.57;58.20;101686.72;5053113;28;20690;-75
2022/07/18 01:49:03;;;;;;;1.87;1.07;;;;;;;16.43;58.72;101686.16;5052967;28;20630;-75
2022/07/18 01:51:29;;;;;;;1.70;0.90;;;;;;;16.41;58.92;101677.41;5053629;28;20208;-74
2022/07/18 01:54:01;;;;;;;1.47;1.00;;;;;;;16.47;58.98;101672.00;5053264;28;20690;-74
2022/07/18 01:56:28;;;;;;;1.67;1.13;;;;;;;16.46;59.53;101665.00;5050920;28;20200;-74
2022/07/18 01:58:56;;;;;;;1.30;1.20;;;;;;;16.36;59.82;101648.53;5052977;28;20707;-74
2022/07/18 02:01:22;;;;;;;1.57;0.90;;;;;;;16.35;60.06;101636.28;5050211;28;20214;-74
2022/07/18 02:03:49;;;;;;;1.23;1.03;;;;;;;16.36;59.76;101640.63;5054819;28;20197;-74
2022/07/18 02:06:15;;;;;;;1.47;1.10;;;;;;;16.33;59.77;101639.84;5056036;28;20204;-74
2022/07/18 02:08:42;;;;;;;3.40;1.00;;;;;;;16.27;59.89;101639.09;5052739;28;20638;-74
2022/07/18 02:11:08;;;;;;;1.03;0.90;;;;;;;16.27;59.70;101641.75;5052853;28;20622;-74
2022/07/18 02:13:36;;;;;;;1.50;1.07;;;;;;;16.20;59.85;101645.41;5052861;28;20224;-74
2022/07/18 02:16:03;;;;;;;7.67;1.40;;;;;;;16.25;59.60;101632.13;5049956;28;20205;-74
2022/07/18 02:18:32;;;;;;;1.70;1.20;;;;;;;16.27;59.83;101636.47;5052643;28;20220;-74
2022/07/18 02:20:58;;;;;;;1.10;1.10;;;;;;;16.25;60.02;101634.75;5052756;28;20229;-74
2022/07/18 02:23:24;;;;;;;1.23;0.87;;;;;;;16.19;60.14;101633.13;5052843;28;20204;-74
2022/07/18 02:25:51;;;;;;;2.30;1.07;;;;;;;16.19;60.26;101629.63;5052530;28;20208;-74
2022/07/18 02:28:17;;;;;;;1.53;1.00;;;;;;;16.16;60.28;101624.44;5052640;28;20270;-74
2022/07/18 02:30:45;;;;;;;2.37;0.90;;;;;;;16.19;59.96;101617.31;5049874;28;20255;-74
2022/07/18 02:33:11;;;;;;;1.20;0.80;;;;;;;16.18;59.89;101628.78;5052369;28;20228;-75
2022/07/18 02:35:38;;;;;;;2.30;1.07;;;;;;;16.18;59.92;101635.81;5058493;28;20208;-75
2022/07/18 02:38:04;;;;;;;2.73;1.10;;;;;;;16.15;59.53;101649.91;5052219;28;20591;-75
2022/07/18 02:40:31;;;;;;;1.27;1.00;;;;;;;16.11;60.12;101639.47;5052149;28;20205;-75
2022/07/18 02:42:57;;;;;;;2.03;1.07;;;;;;;16.08;60.40;101629.88;5052293;28;20204;-75
2022/07/18 02:45:24;;;;;;;1.63;1.10;;;;;;;16.02;60.59;101612.44;5049319;28;20274;-75
2022/07/18 02:47:52;;;;;;;2.37;1.00;;;;;;;15.99;60.77;101606.38;5052780;28;20208;-75
2022/07/18 02:50:18;;;;;;;1.73;1.10;;;;;;;16.01;61.23;101607.22;5052545;28;20217;-74
2022/07/18 02:52:45;;;;;;;1.43;1.10;;;;;;;15.96;61.20;101604.69;5052463;28;20209;-75
2022/07/18 02:55:13;;;;;;;1.03;0.90;;;;;;;15.90;61.34;101586.41;5052284;28;20204;-75
2022/07/18 02:57:40;;;;;;;3.03;1.30;;;;;;;15.83;61.63;101576.91;5052197;28;20678;-75
2022/07/18 03:00:10;;;;;;;1.60;1.17;;;;;;;15.74;61.47;101572.72;5051877;28;20306;-75
2022/07/18 03:02:36;;;;;;;2.00;1.10;;;;;;;15.72;61.19;101573.59;5052257;28;20690;-75
2022/07/18 03:05:05;;;;;;;1.10;1.00;;;;;;;15.69;61.73;101579.81;5060120;28;20221;-75
2022/07/18 03:07:32;;;;;;;1.73;1.00;;;;;;;15.66;61.99;101572.00;5070265;28;20204;-75
2022/07/18 03:09:58;;;;;;;1.30;1.20;;;;;;;15.63;61.92;101570.25;5072205;28;20228;-76
2022/07/18 03:12:25;;;;;;;2.43;1.37;;;;;;;15.64;62.40;101558.00;5072098;28;20204;-76
2022/07/18 03:14:51;;;;;;;1.43;1.00;;;;;;;15.65;62.40;101555.31;5071854;28;20228;-76
2022/07/18 03:17:18;;;;;;;1.10;0.97;;;;;;;15.58;62.39;101552.84;5071902;28;20266;-75
2022/07/18 03:19:44;;;;;;;2.50;1.17;;;;;;;15.58;62.47;101551.09;5071724;28;20721;-74
2022/07/18 03:22:12;;;;;;;2.37;1.10;;;;;;;15.59;62.29;101539.66;5072109;28;20207;-74
2022/07/18 03:24:39;;;;;;;1.10;1.00;;;;;;;15.62;62.37;101558.03;5072003;28;20323;-75
2022/07/18 03:27:05;;;;;;;1.53;1.17;;;;;;;15.61;62.35;101553.63;5071660;28;20715;-74
2022/07/18 03:29:31;;;;;;;1.40;1.10;;;;;;;15.59;62.24;101568.59;5072148;28;20281;-74
2022/07/18 03:31:58;;;;;;;1.43;1.10;;;;;;;15.60;61.40;101569.47;5072159;28;20207;-75
2022/07/18 03:34:24;;;;;;;1.53;0.90;;;;;;;15.63;61.79;101583.44;5065258;28;20287;-75
2022/07/18 03:36:51;;;;;;;1.97;1.33;;;;;;;15.63;61.19;101585.19;5063979;28;20268;-75
2022/07/18 03:39:18;;;;;;;2.20;1.40;;;;;;;15.56;62.23;101581.84;5071910;28;20227;-75
2022/07/18 03:41:45;;;;;;;1.90;1.07;;;;;;;15.47;62.35;101567.09;5071744;28;20217;-75
2022/07/18 03:44:11;;;;;;;2.10;1.40;;;;;;;15.50;61.98;101574.09;5072063;28;20257;-75
2022/07/18 03:46:38;;;;;;;2.67;1.40;;;;;;;15.40;62.69;101578.66;5071737;28;20211;-75
2022/07/18 03:49:04;;;;;;;1.90;1.40;;;;;;;15.34;63.25;101568.28;5071572;28;20228;-75
2022/07/18 03:51:31;;;;;;;1.37;1.27;;;;;;;15.33;63.13;101540.22;5071866;28;20253;-75
2022/07/18 03:53:57;;;;;;;2.90;1.40;;;;;;;15.38;62.69;101551.53;5071707;28;20285;-75
2022/07/18 03:56:25;;;;;;;1.50;1.40;;;;;;;15.31;63.21;101557.81;5071318;28;20639;-74
2022/07/18 03:58:51;;;;;;;1.33;1.03;;;;;;;15.31;63.69;101542.03;5071829;28;20228;-75
2022/07/18 04:01:18;;;;;;;2.63;1.10;;;;;;;15.28;64.05;101521.03;5071762;28;20223;-74
2022/07/18 04:03:44;;;;;;;1.30;1.20;;;;;;;15.20;64.29;101508.06;5065704;28;20266;-74
2022/07/18 04:06:11;;;;;;;2.27;1.30;;;;;;;15.22;64.47;101493.13;5062829;28;20230;-74
2022/07/18 04:08:37;;;;;;;1.60;1.10;;;;;;;15.21;64.79;101490.50;5071516;28;20250;-74
2022/07/18 04:11:04;;;;;;;3.00;1.93;;;;;;;15.23;64.83;101486.94;5071528;28;20598;-75
2022/07/18 04:13:31;;;;;;;1.10;1.00;;;;;;;15.31;64.62;101486.78;5071434;28;20257;-74
2022/07/18 04:15:58;;;;;;;1.63;1.10;;;;;;;15.35;65.00;101487.56;5071438;28;20207;-74
2022/07/18 04:18:24;;;;;;;1.80;1.40;;;;;;;15.33;64.95;101477.09;5071550;28;20641;-74
2022/07/18 04:20:51;;;;;;;2.13;1.00;;;;;;;15.36;65.21;101478.78;5071206;28;20212;-74
2022/07/18 04:23:18;;;;;;;2.10;1.10;;;;;;;15.28;65.50;101465.78;5071705;28;20208;-74
2022/07/18 04:25:45;;;;;;;2.63;1.40;;;;;;;15.33;66.01;101453.41;5071413;28;20204;-74
2022/07/18 04:28:13;;;;;;;1.47;1.30;;;;;;;15.45;65.11;101463.66;5071498;28;20227;-74
2022/07/18 04:30:43;;;;;;;3.83;1.30;;;;;;;15.45;65.22;101461.00;5075109;28;20204;-74
2022/07/18 04:33:11;;;;;;;1.50;1.40;;;;;;;15.48;64.94;101465.38;5071061;28;20212;-74
2022/07/18 04:35:38;;;;;;;1.77;1.00;;;;;;;15.58;64.75;101484.41;5064966;28;20212;-74
2022/07/18 04:38:06;;;;;;;1.00;1.00;;;;;;;15.61;65.12;101479.09;5074839;28;20236;-74
2022/07/18 04:40:34;;;;;;;1.10;1.00;;;;;;;15.64;65.08;101466.72;5074914;28;20208;-74
2022/07/18 04:43:00;;;;;;;1.13;1.03;;;;;;;15.65;65.40;101451.78;5075161;28;20208;-74
2022/07/18 04:45:27;;;;;;;2.27;1.20;;;;;;;15.62;65.77;101446.63;5074800;28;20207;-75
2022/07/18 04:47:55;;;;;;;1.97;1.10;;;;;;;15.63;66.02;101428.13;5074764;28;20208;-74
2022/07/18 04:50:23;;;;;;;1.37;1.10;;;;;;;15.68;65.77;101425.41;5074435;28;20212;-74
2022/07/18 04:52:50;;;;;;;1.13;1.03;;;;;;;15.75;65.59;101455.09;5074994;28;20211;-75
2022/07/18 04:55:20;;;;;;;2.73;1.27;;;;;;;15.65;65.52;101465.81;5074609;28;20281;-74
2022/07/18 04:57:47;;;;;;;2.10;1.10;;;;;;;15.68;65.72;101459.63;5074701;28;20294;-74
2022/07/18 05:00:17;;;;;;;1.90;1.50;;;;;;;15.80;65.62;101467.25;5067239;28;20202;-74
2022/07/18 05:02:45;;;;;;;1.80;1.70;;;;;;;15.89;65.64;101464.38;5053948;28;20208;-74
2022/07/18 05:05:14;;;;;;;2.57;1.80;;;;;;;15.88;65.32;101483.72;5051909;28;20261;-74
2022/07/18 05:07:42;;;;;;;1.70;1.37;;;;;;;15.94;65.11;101473.97;5054544;28;20200;-74
2022/07/18 05:10:11;;;;;;;4.53;1.60;;;;;;;15.92;64.92;101474.00;5051454;28;20200;-74
2022/07/18 05:12:38;;;;;;;2.37;1.43;;;;;;;15.96;65.16;101477.44;5053038;28;20581;-74
2022/07/18 05:15:06;;;;;;;2.50;1.40;;;;;;;15.98;65.43;101478.25;5053491;28;20219;-74
2022/07/18 05:17:33;;;;;;;1.97;1.47;;;;;;;16.02;65.67;101479.91;5053776;28;20251;-75
2022/07/18 05:19:59;;;;;;;1.67;1.57;;;;;;;16.07;65.70;101468.34;5053403;28;20703;-75
2022/07/18 05:22:27;;;;;;;2.97;1.60;;;;;;;16.19;65.27;101476.81;5054104;28;20616;-74
2022/07/18 05:24:53;;;;;;;2.93;1.40;;;;;;;16.23;65.40;101487.28;5053970;28;20203;-74
2022/07/18 05:27:20;;;;;;;2.27;1.50;;;;;;;16.28;65.49;101480.09;5054255;28;20254;-75
2022/07/18 05:29:46;;;;;;;2.30;1.30;;;;;;;16.33;65.34;101485.22;5054019;28;20662;-74
2022/07/18 05:32:13;;;;;;;1.73;1.30;;;;;;;16.36;65.30;101497.50;5054019;28;20216;-74
2022/07/18 05:34:39;;;;;;;2.77;1.90;;;;;;;16.41;65.36;101492.94;5061750;28;20224;-74
2022/07/18 05:37:05;;;;;;;1.60;1.50;;;;;;;16.37;66.28;101465.84;5068123;28;20862;-75
2022/07/18 05:39:35;;;;;;;2.83;1.50;;;;;;;16.43;66.45;101451.59;5073447;28;20784;-75
2022/07/18 05:42:01;;;;;;;3.30;1.43;;;;;;;16.50;66.50;101441.78;5073870;28;20843;-74
2022/07/18 05:44:28;;;;;;;1.50;1.33;;;;;;;16.55;66.67;101440.75;5068657;28;20231;-74
2022/07/18 05:46:54;;;;;;;1.33;1.20;;;;;;;16.56;66.92;101436.34;5053052;28;20209;-74
2022/07/18 05:49:21;;;;;;;2.13;1.20;;;;;;;16.46;67.55;101419.91;5050567;28;20560;-74
2022/07/18 05:51:47;;;;;;;2.07;1.63;;;;;;;16.33;68.44;101400.06;5053118;28;20205;-76
2022/07/18 05:54:18;;;;;;;1.90;1.50;;;;;;;16.38;68.35;101383.22;5053244;28;20213;-74
2022/07/18 05:56:47;;;;;;;1.60;1.27;;;;;;;16.39;68.96;101373.53;5050818;28;20237;-73
2022/07/18 05:59:13;;;;;;;1.50;1.40;;;;;;;16.43;68.08;101385.72;5052960;28;20630;-74
2022/07/18 06:01:40;;;;;;;2.00;1.50;;;;;;;16.48;67.45;101418.94;5052523;28;20300;-73
2022/07/18 06:04:06;;;;;;;1.60;1.50;;;;;;;16.63;66.56;101443.13;5058682;28;20273;-73
2022/07/18 06:06:33;;;;;;;3.53;1.60;;;;;;;16.70;65.91;101470.22;5063088;28;20200;-74
2022/07/18 06:08:59;;;;;;;2.27;1.30;;;;;;;16.82;65.79;101486.56;5072523;28;20227;-73
2022/07/18 06:11:26;;;;;;;2.43;1.70;;;;;;;16.84;65.66;101483.91;5073344;28;20207;-73
2022/07/18 06:13:53;;;;;;;3.40;1.57;;;;;;;16.92;65.21;101491.59;5072734;28;20262;-74
2022/07/18 06:16:20;;;;;;;2.77;1.80;;;;;;;17.05;65.46;101490.34;5072892;28;20209;-74
2022/07/18 06:18:46;;;;;;;1.77;1.67;;;;;;;17.05;67.29;101446.38;5073281;28;20323;-74
2022/07/18 06:21:13;;;;;;;2.10;1.30;;;;;;;17.13;67.17;101440.84;5072843;28;20740;-74
2022/07/18 06:23:40;;;;;;;2.27;1.40;;;;;;;17.11;67.84;101416.31;5072969;28;20707;-74
2022/07/18 06:26:07;;;;;;;2.50;1.27;;;;;;;17.07;67.84;101412.03;5072735;28;20269;-75
2022/07/18 06:28:34;;;;;;;2.10;1.33;;;;;;;17.09;65.38;101452.41;5073006;28;20318;-74
2022/07/18 06:31:02;;;;;;;1.53;1.43;;;;;;;17.09;67.16;101422.53;5073064;28;20269;-75
2022/07/18 06:33:28;;;;;;;2.57;1.00;;;;;;;17.23;66.05;101434.38;5066952;28;20571;-74
2022/07/18 06:35:55;;;;;;;3.33;1.30;;;;;;;17.31;66.30;101431.50;5063954;28;20228;-74
2022/07/18 06:38:21;;;;;;;2.73;1.47;;;;;;;17.52;65.52;101474.88;5072647;28;20721;-74
2022/07/18 06:40:47;;;;;;;2.37;1.33;;;;;;;17.67;63.52;101516.59;5072585;28;20208;-74
2022/07/18 06:43:19;;;;;;;4.20;1.30;;;;;;;17.84;62.52;101546.97;5072617;28;20679;-74
2022/07/18 06:45:45;;;;;;;1.60;1.40;;;;;;;17.97;63.56;101573.84;5072609;28;20258;-74
2022/07/18 06:48:13;;;;;;;2.10;1.30;;;;;;;18.09;62.63;101562.03;5072670;28;20228;-77
2022/07/18 06:50:40;;;;;;;2.17;1.17;;;;;;;18.25;63.20;101574.69;5072304;28;20661;-74
2022/07/18 06:53:06;;;;;;;1.70;1.60;;;;;;;18.34;61.98;101599.09;5071972;28;20228;-74
2022/07/18 06:55:32;;;;;;;1.53;1.13;;;;;;;18.42;62.79;101563.53;5072109;28;20228;-75
2022/07/18 06:57:59;;;;;;;1.80;1.50;;;;;;;18.51;62.65;101566.78;5073289;28;20262;-77
2022/07/18 07:00:26;;;;;;;2.70;1.83;;;;;;;18.63;62.03;101577.84;5073889;28;20218;-75
2022/07/18 07:02:53;;;;;;;1.97;1.27;;;;;;;18.68;60.67;101627.91;5072606;28;20223;-76
2022/07/18 07:05:22;;;;;;;3.53;1.70;;;;;;;18.83;60.07;101645.09;5060106;28;20193;-76
2022/07/18 07:07:49;;;;;;;2.27;1.50;;;;;;;18.88;59.00;101663.44;5032340;28;20210;-76
2022/07/18 07:10:16;;;;;;;2.53;1.17;;;;;;;18.97;58.09;101686.97;5032499;28;20217;-76
2022/07/18 07:12:44;;;;;;;2.80;1.50;;;;;;;19.08;59.51;101713.03;5032364;28;20244;-76
2022/07/18 07:15:11;;;;;;;4.10;1.60;;;;;;;19.21;59.00;101688.75;5042440;28;20213;-75
2022/07/18 07:17:38;;;;;;;1.93;1.30;;;;;;;19.28;58.83;101694.69;5051750;28;20270;-76
2022/07/18 07:20:07;;;;;;;3.97;1.10;;;;;;;19.38;58.06;101711.09;5051275;28;20275;-76
2022/07/18 07:22:41;;;;;;;2.57;1.43;;;;;;;19.48;57.80;101719.59;5052508;28;20208;-76
2022/07/18 07:25:09;;;;;;;2.30;1.33;;;;;;;19.56;57.31;101707.81;5050048;28;20204;-76
2022/07/18 07:27:36;;;;;;;5.50;1.30;;;;;;;19.64;56.63;101737.53;5049390;28;20737;-76
2022/07/18 07:30:02;;;;;;;2.37;1.20;;;;;;;19.75;55.05;101789.31;5051451;28;20223;-76
2022/07/18 07:32:29;;;;;;;1.80;1.20;;;;;;;19.85;56.03;101777.44;5050919;28;20231;-76
2022/07/18 07:34:55;;;;;;;2.47;1.30;;;;;;;19.93;55.30;101763.94;5051883;28;20249;-76
2022/07/18 07:37:22;;;;;;;1.90;1.30;;;;;;;19.98;55.11;101791.09;5052491;28;20205;-76
2022/07/18 07:39:50;;;;;;;5.67;1.93;;;;;;;20.08;55.00;101796.94;5050999;28;20272;-76
2022/07/18 07:42:16;;;;;;;1.83;1.40;;;;;;;20.16;54.62;101797.53;5051436;28;20232;-76
2022/07/18 07:44:42;;;;;;;1.50;1.40;;;;;;;20.30;53.83;101813.78;5051074;28;20202;-74
2022/07/18 07:47:09;;;;;;;3.30;1.20;;;;;;;20.42;52.61;101844.28;5051086;28;20201;-76
2022/07/18 07:49:36;;;;;;;1.53;1.43;;;;;;;20.54;51.95;101858.88;5050758;28;20785;-76
2022/07/18 07:52:03;;;;;;;3.63;1.67;;;;;;;20.68;51.91;101887.56;5051239;28;20671;-76
2022/07/18 07:54:29;;;;;;;2.27;2.03;;;;;;;20.79;52.92;101880.94;5051035;28;20225;-76
2022/07/18 07:56:57;;;;;;;4.40;1.30;;;;;;;20.87;52.23;101864.72;5050899;28;20671;-77
2022/07/18 07:59:23;;;;;;;2.23;1.30;;;;;;;21.11;46.58;101953.16;5050805;28;20698;-76
2022/07/18 08:01:50;;;;;;;1.93;1.17;;;;;;;21.22;48.56;102030.59;5051036;28;20205;-76
2022/07/18 08:04:16;;;;;;;1.30;0.90;;;;;;;21.43;45.82;102049.34;5054841;28;20201;-77
2022/07/18 08:06:43;;;;;;;1.53;1.40;;;;;;;21.56;46.37;102081.59;5056318;28;20205;-76
2022/07/18 08:09:09;;;;;;;2.23;1.10;;;;;;;21.66;47.48;102050.22;5055023;28;20228;-76
2022/07/18 08:11:35;;;;;;;2.87;1.03;;;;;;;21.79;44.86;102088.69;5055212;28;20198;-76
2022/07/18 08:14:03;;;;;;;1.17;1.00;;;;;;;21.92;45.75;102107.66;5054992;28;20263;-76
2022/07/18 08:16:30;;;;;;;1.37;1.20;;;;;;;22.08;45.08;102129.19;5054715;28;20225;-78
2022/07/18 08:18:56;;;;;;;2.13;1.07;;;;;;;22.30;42.75;102156.69;5054631;28;20715;-76
2022/07/18 08:21:22;;;;;;;2.93;1.20;;;;;;;22.47;43.56;102176.41;5055036;28;20738;-76
2022/07/18 08:23:49;;;;;;;2.17;1.00;;;;;;;22.55;42.78;102177.81;5055443;28;20209;-76
2022/07/18 08:26:16;;;;;;;1.60;0.97;;;;;;;22.60;43.46;102164.34;5054985;28;20210;-76
2022/07/18 08:28:43;;;;;;;2.53;1.23;;;;;;;22.58;42.29;102136.94;5054726;28;20229;-76
2022/07/18 08:31:11;;;;;;;2.40;1.13;;;;;;;22.59;41.35;102157.28;5055083;28;20209;-76
2022/07/18 08:33:37;;;;;;;1.83;0.90;;;;;;;22.65;41.27;102196.94;5057366;28;20255;-76
2022/07/18 08:36:04;;;;;;;1.67;1.33;;;;;;;22.76;42.96;102204.50;5065837;28;20216;-76
2022/07/18 08:38:31;;;;;;;2.87;1.20;;;;;;;22.79;43.63;102161.75;5073852;28;20282;-76
2022/07/18 08:40:59;;;;;;;3.40;1.33;;;;;;;22.93;41.13;102148.72;5074697;28;20216;-75
2022/07/18 08:43:26;;;;;;;2.10;1.30;;;;;;;23.16;40.78;102163.72;5074951;28;20743;-76
2022/07/18 08:45:55;;;;;;;2.87;1.20;;;;;;;23.18;38.34;102224.94;5073837;28;20201;-76
2022/07/18 08:48:23;;;;;;;1.87;1.30;;;;;;;23.18;38.82;102232.91;5054612;28;20217;-76
2022/07/18 08:50:50;;;;;;;2.17;1.20;;;;;;;23.18;38.90;102248.91;5054283;28;20674;-76
2022/07/18 08:53:19;;;;;;;2.37;1.17;;;;;;;23.21;38.76;102304.75;5054603;28;20206;-76
2022/07/18 08:55:46;;;;;;;1.53;1.20;;;;;;;23.28;36.77;102305.34;5053995;28;20319;-76
2022/07/18 08:58:14;;;;;;;1.80;0.90;;;;;;;23.46;37.92;102341.84;5054381;28;20653;-76
2022/07/18 09:00:41;;;;;;;1.70;1.30;;;;;;;23.60;37.96;102302.13;5054523;28;20574;-76
2022/07/18 09:03:08;;;;;;;2.73;1.50;;;;;;;23.68;37.72;102317.78;5053931;28;20686;-76
2022/07/18 09:05:35;;;;;;;4.93;1.50;;;;;;;23.86;34.77;102332.13;5064245;28;20251;-76
2022/07/18 09:08:09;;;;;;;2.23;1.33;;;;;;;23.98;35.49;102376.06;5074451;28;20674;-76
2022/07/18 09:10:42;;;;;;;1.50;1.10;;;;;;;23.99;35.42;102373.34;5074459;28;20727;-76
2022/07/18 09:13:08;;;;;;;2.70;1.20;;;;;;;24.03;35.88;102370.56;5074710;28;20212;-76
2022/07/18 09:15:35;;;;;;;1.40;1.17;;;;;;;23.99;35.50;102337.81;5073695;28;20226;-76
2022/07/18 09:18:01;;;;;;;2.73;1.00;;;;;;;24.09;36.11;102340.91;5074359;28;20208;-76
2022/07/18 09:20:28;;;;;;;1.63;1.00;;;;;;;24.17;36.44;102341.44;5075195;28;20205;-78
2022/07/18 09:22:55;;;;;;;1.97;1.23;;;;;;;24.24;35.83;102332.22;5079759;28;20253;-80
2022/07/18 09:25:24;;;;;;;2.70;1.60;;;;;;;24.18;34.63;102330.69;5081442;28;20210;-79
2022/07/18 09:27:52;;;;;;;1.40;1.30;;;;;;;24.20;34.43;102357.28;5081564;28;20208;-78
2022/07/18 09:30:29;;;;;;;7.10;1.40;;;;;;;24.26;35.03;102365.03;5081945;28;20212;-80
2022/07/18 09:33:06;;;;;;;1.23;1.13;;;;;;;24.33;35.61;102323.75;5078407;28;20243;-79
2022/07/18 09:35:35;;;;;;;2.87;1.43;;;;;;;24.43;34.23;102329.53;5068213;28;20224;-79
2022/07/18 09:38:05;;;;;;;3.77;1.40;;;;;;;24.53;33.73;102352.22;5080918;28;20208;-80
2022/07/18 09:40:33;;;;;;;1.20;0.97;;;;;;;24.55;33.73;102355.69;5078016;28;20208;-78
2022/07/18 09:43:02;;;;;;;1.47;0.97;;;;;;;24.62;34.26;102387.44;5078225;28;20216;-79
2022/07/18 09:45:31;;;;;;;2.03;1.00;;;;;;;24.76;34.89;102361.81;5079585;28;20674;-78
2022/07/18 09:47:59;;;;;;;1.67;1.27;;;;;;;24.71;34.89;102350.47;5076456;28;20348;-77
2022/07/18 09:50:32;;;;;;;2.13;1.10;;;;;;;24.82;34.59;102341.09;5075001;28;20215;-76
2022/07/18 09:53:08;;;;;;;1.73;1.23;;;;;;;24.90;36.38;102333.56;5075289;28;20240;-77
2022/07/18 09:55:36;;;;;;;1.33;1.10;;;;;;;25.03;33.64;102293.72;5074776;28;20227;-77
2022/07/18 09:58:06;;;;;;;5.57;1.47;;;;;;;25.14;33.72;102318.97;5075112;28;20264;-77
2022/07/18 10:00:35;;;;;;;1.13;1.03;;;;;;;25.17;34.01;102293.88;5075847;28;20212;-77
2022/07/18 10:03:03;;;;;;;1.53;1.37;;;;;;;25.23;35.60;102306.13;5072287;28;20220;-77
2022/07/18 10:05:31;;;;;;;3.20;1.00;;;;;;;25.27;35.38;102283.63;5066611;28;20224;-78
2022/07/18 10:07:59;;;;;;;2.43;1.00;;;;;;;25.45;35.73;102273.78;5077015;28;20209;-77
2022/07/18 10:10:27;;;;;;;1.50;1.30;;;;;;;25.55;35.64;102270.56;5076558;28;20208;-77
2022/07/18 10:12:56;;;;;;;1.97;1.27;;;;;;;25.71;35.18;102291.16;5076737;28;20205;-78
2022/07/18 10:15:25;;;;;;;1.40;1.30;;;;;;;25.80;33.41;102263.88;5076360;28;20259;-77
2022/07/18 10:17:51;;;;;;;2.47;1.60;;;;;;;25.81;31.57;102294.16;5074286;28;20223;-78
2022/07/18 10:20:25;;;;;;;1.60;1.50;;;;;;;25.79;31.93;102350.47;5056632;28;20210;-77
2022/07/18 10:22:54;;;;;;;7.03;2.00;;;;;;;26.00;30.72;102348.47;5056423;28;20205;-77
2022/07/18 10:25:22;;;;;;;1.30;1.17;;;;;;;26.10;31.47;102372.94;5055556;28;20202;-78
2022/07/18 10:27:52;;;;;;;1.47;1.10;;;;;;;26.18;31.78;102365.34;5054118;28;20211;-78
2022/07/18 10:30:29;;;;;;;2.37;1.40;;;;;;;26.20;33.86;102362.59;5058074;28;20209;-77
2022/07/18 10:32:56;;;;;;;2.20;1.73;;;;;;;26.20;30.05;102323.28;5057420;28;20628;-78
2022/07/18 10:36:02;;;;;;;1.67;1.57;;;;;;;26.28;31.62;102387.13;5063725;28;20222;-78
2022/07/18 10:38:28;;;;;;;2.13;1.40;;;;;;;26.41;30.96;102371.28;5073565;28;20273;-77
2022/07/18 10:41:03;;;;;;;2.57;1.77;;;;;;;26.50;30.29;102352.88;5074000;28;20216;-77
2022/07/18 10:43:37;;;;;;;2.90;1.50;;;;;;;26.63;31.22;102376.31;5076282;28;20246;-77
2022/07/18 10:46:05;;;;;;;2.00;1.70;;;;;;;26.77;30.32;102365.69;5075340;28;20732;-78
2022/07/18 10:49:04;;;;;;;2.57;1.50;;;;;;;26.88;30.06;102367.78;5107504;27;20560;-75
2022/07/18 10:51:35;;;;;;;1.73;1.63;;;;;;;26.94;29.33;102365.59;5068858;28;20208;-76
2022/07/18 10:54:15;;;;;;;1.73;1.60;;;;;;;27.05;30.07;102390.91;5068897;28;20205;-76
2022/07/18 10:57:10;;;;;;;2.10;1.90;;;;;;;27.11;28.59;102326.22;5068654;28;20248;-75
2022/07/18 10:59:38;;;;;;;2.97;1.60;;;;;;;27.23;29.98;102397.03;5068284;28;20229;-76
2022/07/18 11:02:08;;;;;;;1.80;1.70;;;;;;;27.28;29.01;102390.47;5068664;28;20235;-76
2022/07/18 11:04:41;;;;;;;1.87;1.77;;;;;;;27.36;29.46;102418.69;5084816;28;20257;-76
2022/07/18 11:07:13;;;;;;;2.40;1.80;;;;;;;27.47;28.97;102381.31;5088491;28;20220;-76
2022/07/18 11:09:42;;;;;;;2.50;1.80;;;;;;;27.59;31.13;102375.25;5088715;28;20232;-76
2022/07/18 11:12:27;;;;;;;3.43;1.90;;;;;;;27.78;30.56;102318.63;5089084;28;20208;-76
2022/07/18 11:15:11;;;;;;;3.97;2.00;;;;;;;27.90;30.87;102315.19;5088542;28;20593;-76
2022/07/18 11:18:05;;;;;;;2.07;1.97;;;;;;;27.99;28.55;102339.75;5088921;28;20607;-76
2022/07/18 11:20:41;;;;;;;3.73;2.40;;;;;;;28.16;27.19;102306.47;5088494;28;20213;-76
2022/07/18 11:23:17;;;;;;;3.60;2.17;;;;;;;28.15;27.86;102348.56;5088926;28;20612;-76
2022/07/18 11:25:43;;;;;;;2.43;2.17;;;;;;;28.31;29.66;102373.50;5088546;28;20204;-76
2022/07/18 11:28:11;;;;;;;2.13;2.03;;;;;;;28.51;29.08;102318.50;5088426;28;20278;-76
2022/07/18 11:30:38;;;;;;;2.27;2.07;;;;;;;28.60;28.71;102348.44;5088731;28;20286;-76
2022/07/18 11:33:06;;;;;;;2.00;1.90;;;;;;;28.85;29.34;102331.56;5088794;28;20212;-76